createdAt,value
2022-12-23T00:00:16.821Z,90.50
2022-12-23T00:02:45.152Z,90.50
2022-12-23T00:05:13.596Z,90.60
2022-12-23T00:07:44.879Z,90.60
2022-12-23T00:10:13.243Z,90.50
2022-12-23T00:12:58.978Z,90.60
2022-12-23T00:15:27.008Z,90.60
2022-12-23T00:17:55.174Z,90.60
2022-12-23T00:20:23.288Z,90.50
2022-12-23T00:23:07.838Z,90.60
2022-12-23T00:25:44.719Z,90.60
2022-12-23T00:28:14.331Z,90.70
2022-12-23T00:30:46.910Z,90.70
2022-12-23T00:33:15.207Z,90.70
2022-12-23T00:35:43.285Z,90.70
2022-12-23T00:38:12.945Z,90.70
2022-12-23T00:40:58.343Z,90.80
2022-12-23T00:43:26.377Z,90.70
2022-12-23T00:45:54.503Z,90.80
2022-12-23T00:48:39.973Z,90.70
2022-12-23T00:51:12.746Z,90.70
2022-12-23T00:53:42.203Z,90.70
2022-12-23T00:56:10.347Z,90.80
2022-12-23T00:58:38.359Z,90.80
2022-12-23T01:01:24.340Z,90.80
2022-12-23T01:04:09.662Z,90.60
2022-12-23T01:06:37.686Z,90.70
2022-12-23T01:09:07.131Z,90.80
2022-12-23T01:11:35.244Z,90.80
2022-12-23T01:14:03.275Z,90.70
2022-12-23T01:16:31.392Z,90.70
2022-12-23T01:19:00.187Z,90.70
2022-12-23T01:21:28.246Z,90.80
2022-12-23T01:23:56.259Z,90.80
2022-12-23T01:26:25.659Z,90.70
2022-12-23T01:28:54.844Z,90.80
2022-12-23T01:31:23.083Z,90.80
2022-12-23T01:33:51.139Z,90.80
2022-12-23T01:36:24.858Z,90.80
2022-12-23T01:38:53.091Z,90.80
2022-12-23T01:41:35.613Z,90.80
2022-12-23T01:44:20.297Z,90.90
2022-12-23T01:46:48.877Z,90.90
2022-12-23T01:49:16.916Z,90.90
2022-12-23T01:51:44.924Z,90.90
2022-12-23T01:54:12.966Z,90.90
2022-12-23T01:56:41.032Z,90.90
2022-12-23T01:59:11.082Z,90.90
2022-12-23T02:01:56.668Z,90.80
2022-12-23T02:04:25.280Z,91.00
2022-12-23T02:07:10.678Z,91.00
2022-12-23T02:09:39.694Z,91.00
2022-12-23T02:12:39.585Z,90.90
2022-12-23T02:15:40.042Z,90.90
2022-12-23T02:18:22.851Z,90.90
2022-12-23T02:21:11.168Z,91.10
2022-12-23T02:24:00.048Z,91.00
2022-12-23T02:26:47.195Z,91.00
2022-12-23T02:29:34.184Z,91.00
2022-12-23T02:32:06.617Z,91.10
2022-12-23T02:34:37.403Z,91.00
2022-12-23T02:37:07.377Z,91.10
2022-12-23T02:39:39.137Z,91.10
2022-12-23T02:42:08.410Z,91.20
2022-12-23T02:44:39.900Z,91.20
2022-12-23T02:47:11.432Z,91.10
2022-12-23T02:49:40.930Z,91.10
2022-12-23T02:52:11.650Z,91.30
2022-12-23T02:54:41.911Z,91.20
2022-12-23T02:57:13.221Z,91.30
2022-12-23T02:59:42.354Z,91.20
2022-12-23T03:02:11.922Z,91.30
2022-12-23T03:04:42.294Z,91.20
2022-12-23T03:07:18.220Z,91.30
2022-12-23T03:09:51.804Z,91.40
2022-12-23T03:12:23.742Z,91.30
2022-12-23T03:15:09.264Z,91.40
2022-12-23T03:17:48.437Z,91.40
2022-12-23T03:20:20.910Z,91.30
2022-12-23T03:22:51.185Z,91.40
2022-12-23T03:25:20.719Z,91.30
2022-12-23T03:27:51.085Z,91.40
2022-12-23T03:30:19.920Z,91.40
2022-12-23T03:32:50.954Z,91.30
2022-12-23T03:35:20.095Z,91.40
2022-12-23T03:37:49.426Z,91.40
2022-12-23T03:40:19.741Z,91.40
2022-12-23T03:42:50.272Z,91.50
2022-12-23T03:45:38.095Z,91.50
2022-12-23T03:48:10.968Z,91.40
2022-12-23T03:50:38.964Z,91.40
2022-12-23T03:53:08.718Z,91.40
2022-12-23T03:55:37.747Z,91.40
2022-12-23T03:58:10.183Z,91.40
2022-12-23T04:00:41.399Z,91.50
2022-12-23T04:03:14.423Z,91.50
2022-12-23T04:05:42.468Z,91.50
2022-12-23T04:08:12.562Z,91.60
2022-12-23T04:10:40.601Z,91.50
2022-12-23T04:13:08.693Z,91.50
2022-12-23T04:15:39.347Z,91.50
2022-12-23T04:18:07.511Z,91.50
2022-12-23T04:20:37.423Z,91.50
2022-12-23T04:23:05.471Z,91.60
2022-12-23T04:25:33.516Z,91.70
2022-12-23T04:28:01.533Z,91.60
2022-12-23T04:30:34.018Z,91.60
2022-12-23T04:33:02.914Z,91.60
2022-12-23T04:35:30.981Z,91.60
2022-12-23T04:38:00.997Z,91.60
2022-12-23T04:40:29.071Z,91.60
2022-12-23T04:42:57.111Z,91.60
2022-12-23T04:45:25.130Z,91.60
2022-12-23T04:47:54.427Z,91.60
2022-12-23T04:50:22.502Z,91.70
2022-12-23T04:52:50.534Z,91.70
2022-12-23T04:55:20.028Z,91.50
2022-12-23T04:57:48.072Z,91.60
2022-12-23T05:00:17.006Z,91.60
2022-12-23T05:02:45.129Z,91.50
2022-12-23T05:05:13.318Z,91.70
2022-12-23T05:07:41.342Z,91.60
2022-12-23T05:10:10.816Z,91.60
2022-12-23T05:12:40.225Z,91.60
2022-12-23T05:15:09.266Z,91.60
2022-12-23T05:17:37.675Z,91.60
2022-12-23T05:20:06.273Z,91.60
2022-12-23T05:22:34.298Z,91.70
2022-12-23T05:25:02.349Z,91.70
2022-12-23T05:27:30.381Z,91.70
2022-12-23T05:29:59.798Z,91.60
2022-12-23T05:32:27.853Z,91.60
2022-12-23T05:34:55.907Z,91.70
2022-12-23T05:37:23.995Z,91.60
2022-12-23T05:39:52.049Z,91.80
2022-12-23T05:42:20.243Z,91.70
2022-12-23T05:44:48.619Z,91.70
2022-12-23T05:47:18.019Z,91.70
2022-12-23T05:49:46.084Z,91.70
2022-12-23T05:52:14.112Z,91.60
2022-12-23T05:54:42.154Z,91.60
2022-12-23T05:57:10.186Z,91.60
2022-12-23T05:59:38.230Z,91.50
2022-12-23T06:02:06.435Z,91.60
2022-12-23T06:04:35.972Z,91.30
2022-12-23T06:07:04.029Z,91.60
2022-12-23T06:09:32.085Z,91.60
2022-12-23T06:12:00.129Z,91.60
2022-12-23T06:14:29.275Z,91.30
2022-12-23T06:17:01.132Z,91.50
2022-12-23T06:19:29.216Z,91.20
2022-12-23T06:21:58.609Z,91.60
2022-12-23T06:24:26.680Z,91.60
2022-12-23T06:26:57.232Z,91.50
2022-12-23T06:29:25.754Z,91.30
2022-12-23T06:31:55.122Z,91.30
2022-12-23T06:34:23.198Z,91.50
2022-12-23T06:36:51.243Z,91.50
2022-12-23T06:39:20.983Z,91.60
2022-12-23T06:41:49.028Z,91.60
2022-12-23T06:44:17.068Z,91.30
2022-12-23T06:46:45.091Z,91.30
2022-12-23T06:49:13.976Z,91.30
2022-12-23T06:51:42.407Z,91.30
2022-12-23T06:54:11.129Z,91.30
2022-12-23T06:56:40.589Z,91.50
2022-12-23T06:59:13.033Z,91.30
2022-12-23T07:01:41.412Z,91.30
2022-12-23T07:04:10.362Z,91.50
2022-12-23T07:06:39.571Z,91.50
2022-12-23T07:09:07.613Z,91.30
2022-12-23T07:11:35.665Z,91.20
2022-12-23T07:14:05.072Z,91.20
2022-12-23T07:16:33.208Z,91.30
2022-12-23T07:19:01.289Z,91.30
2022-12-23T07:21:30.145Z,91.10
2022-12-23T07:23:58.402Z,91.30
2022-12-23T07:26:26.944Z,91.30
2022-12-23T07:28:54.995Z,91.50
2022-12-23T07:31:24.536Z,91.30
2022-12-23T07:33:52.634Z,91.30
2022-12-23T07:36:25.086Z,91.30
2022-12-23T07:38:53.151Z,91.30
2022-12-23T07:41:21.217Z,91.30
2022-12-23T07:43:49.264Z,91.30
2022-12-23T07:46:17.413Z,91.20
2022-12-23T07:48:46.901Z,91.30
2022-12-23T07:51:14.979Z,91.30
2022-12-23T07:53:43.009Z,91.30
2022-12-23T07:56:11.050Z,91.30
2022-12-23T07:58:39.084Z,91.50
2022-12-23T08:01:08.644Z,91.50
2022-12-23T08:03:36.838Z,91.50
2022-12-23T08:06:07.548Z,91.30
2022-12-23T08:08:35.716Z,91.20
2022-12-23T08:11:04.773Z,91.30
2022-12-23T08:13:33.646Z,91.30
2022-12-23T08:16:01.952Z,91.20
2022-12-23T08:18:31.056Z,91.30
2022-12-23T08:20:59.921Z,91.30
2022-12-23T08:23:29.963Z,91.30
2022-12-23T08:26:02.066Z,91.30
2022-12-23T08:28:30.093Z,91.50
2022-12-23T08:31:04.733Z,91.30
2022-12-23T08:33:32.915Z,91.20
2022-12-23T08:36:01.016Z,91.30
2022-12-23T08:38:30.407Z,91.50
2022-12-23T08:40:58.446Z,91.30
2022-12-23T08:43:31.812Z,91.30
2022-12-23T08:46:03.525Z,91.30
2022-12-23T08:48:37.191Z,91.30
2022-12-23T08:51:05.894Z,91.20
2022-12-23T08:53:35.529Z,91.20
2022-12-23T08:56:04.185Z,91.20
2022-12-23T08:58:32.317Z,91.20
2022-12-23T09:01:04.344Z,91.20
2022-12-23T09:03:32.416Z,91.10
2022-12-23T09:06:00.547Z,91.20
2022-12-23T09:08:28.560Z,91.10
2022-12-23T09:10:58.023Z,91.20
2022-12-23T09:13:34.598Z,91.20
2022-12-23T09:16:03.548Z,91.20
2022-12-23T09:18:37.186Z,91.10
2022-12-23T09:21:06.014Z,91.10
2022-12-23T09:23:34.207Z,91.00
2022-12-23T09:26:04.877Z,91.00
2022-12-23T09:28:32.901Z,91.00
2022-12-23T09:31:07.001Z,91.10
2022-12-23T09:33:35.018Z,91.10
2022-12-23T09:36:03.084Z,91.10
2022-12-23T09:38:31.113Z,91.00
2022-12-23T09:41:04.643Z,91.00
2022-12-23T09:43:54.338Z,91.00
2022-12-23T09:46:23.641Z,91.00
2022-12-23T09:48:55.983Z,91.10
2022-12-23T09:51:24.037Z,91.10
2022-12-23T09:53:55.815Z,91.10
2022-12-23T09:56:28.650Z,91.10
2022-12-23T09:58:59.797Z,91.20
2022-12-23T10:01:31.261Z,91.00
2022-12-23T10:04:23.624Z,91.00
2022-12-23T10:06:56.423Z,91.00
2022-12-23T10:09:29.097Z,91.10
2022-12-23T10:11:58.522Z,91.00
2022-12-23T10:14:27.645Z,91.10
2022-12-23T10:16:58.227Z,91.00
2022-12-23T10:19:27.453Z,90.90
2022-12-23T10:21:57.177Z,91.00
2022-12-23T10:24:34.521Z,91.10
2022-12-23T10:27:05.830Z,91.10
2022-12-23T10:29:34.552Z,91.00
2022-12-23T10:32:07.907Z,91.00
2022-12-23T10:34:42.111Z,91.00
2022-12-23T10:37:15.457Z,91.00
2022-12-23T10:39:45.981Z,91.00
2022-12-23T10:42:20.157Z,90.90
2022-12-23T10:45:15.609Z,91.00
2022-12-23T10:47:51.620Z,90.90
2022-12-23T10:50:39.220Z,90.90
2022-12-23T10:53:09.900Z,90.90
2022-12-23T10:55:38.315Z,91.00
2022-12-23T10:58:09.265Z,90.90
2022-12-23T11:00:38.603Z,90.90
2022-12-23T11:03:10.798Z,90.90
2022-12-23T11:05:38.999Z,90.90
2022-12-23T11:08:07.133Z,90.90
2022-12-23T11:10:35.160Z,90.90
2022-12-23T11:13:03.219Z,90.90
2022-12-23T11:15:34.514Z,90.90
2022-12-23T11:18:04.784Z,90.80
2022-12-23T11:20:33.110Z,90.80
2022-12-23T11:23:02.772Z,90.70
2022-12-23T11:25:33.402Z,90.80
2022-12-23T11:28:03.567Z,90.80
2022-12-23T11:30:33.787Z,90.80
2022-12-23T11:33:01.865Z,90.80
2022-12-23T11:35:30.995Z,90.80
2022-12-23T11:37:59.512Z,90.60
2022-12-23T11:40:28.810Z,90.70
2022-12-23T11:43:00.855Z,90.60
2022-12-23T11:45:30.180Z,90.70
2022-12-23T11:47:59.630Z,90.70
2022-12-23T11:50:32.911Z,90.70
2022-12-23T11:53:14.713Z,90.70
2022-12-23T11:55:47.896Z,90.70
2022-12-23T11:58:20.982Z,90.60
2022-12-23T12:00:56.093Z,90.60
2022-12-23T12:03:29.021Z,90.60
2022-12-23T12:06:02.203Z,90.60
2022-12-23T12:08:36.956Z,90.60
2022-12-23T12:11:07.326Z,90.60
2022-12-23T12:13:38.625Z,90.60
2022-12-23T12:16:31.863Z,90.50
2022-12-23T12:19:02.954Z,90.60
2022-12-23T12:21:34.175Z,90.50
2022-12-23T12:24:18.340Z,90.40
2022-12-23T12:26:51.122Z,90.50
2022-12-23T12:29:22.200Z,90.50
2022-12-23T12:31:51.893Z,90.50
2022-12-23T12:34:32.407Z,90.50
2022-12-23T12:37:02.498Z,90.50
2022-12-23T12:39:32.296Z,90.50
2022-12-23T12:42:05.736Z,90.50
2022-12-23T12:44:37.752Z,90.50
2022-12-23T12:47:27.931Z,90.60
2022-12-23T12:50:00.252Z,90.50
2022-12-23T12:52:28.738Z,90.40
2022-12-23T12:54:58.940Z,90.40
2022-12-23T12:57:26.992Z,90.50
2022-12-23T13:00:01.608Z,90.50
2022-12-23T13:02:43.936Z,90.50
2022-12-23T13:05:21.651Z,90.40
2022-12-23T13:07:57.722Z,90.50
2022-12-23T13:10:33.158Z,90.50
2022-12-23T13:13:04.095Z,90.40
2022-12-23T13:15:34.288Z,90.40
2022-12-23T13:18:12.675Z,90.50
2022-12-23T13:20:44.444Z,90.40
2022-12-23T13:23:41.573Z,90.50
2022-12-23T13:26:04.578Z,90.40
2022-12-23T13:28:35.138Z,90.40
2022-12-23T13:31:06.951Z,90.40
2022-12-23T13:33:36.800Z,90.40
2022-12-23T13:36:21.559Z,90.30
2022-12-23T13:39:00.121Z,90.30
2022-12-23T13:41:31.383Z,90.40
2022-12-23T13:44:00.516Z,90.40
2022-12-23T13:46:47.801Z,90.30
2022-12-23T13:49:21.020Z,90.40
2022-12-23T13:51:53.985Z,90.40
2022-12-23T13:54:26.651Z,90.30
2022-12-23T13:56:57.904Z,90.30
2022-12-23T13:59:26.020Z,90.30
2022-12-23T14:01:54.091Z,90.30
2022-12-23T14:04:36.291Z,90.30
2022-12-23T14:07:19.377Z,90.40
2022-12-23T14:09:50.337Z,90.40
2022-12-23T14:12:21.882Z,90.40
2022-12-23T14:15:03.860Z,90.40
2022-12-23T14:17:33.520Z,90.50
2022-12-23T14:20:09.805Z,90.40
2022-12-23T14:23:00.969Z,90.30
2022-12-23T14:25:47.384Z,90.40
2022-12-23T14:28:25.130Z,90.30
2022-12-23T14:30:53.167Z,90.40
2022-12-23T14:33:24.154Z,90.40
2022-12-23T14:35:54.373Z,90.40
2022-12-23T14:38:31.544Z,90.40
2022-12-23T14:41:23.873Z,90.40
2022-12-23T14:43:56.114Z,90.40
2022-12-23T14:46:57.705Z,90.40
2022-12-23T14:49:52.887Z,90.40
2022-12-23T14:52:49.155Z,90.30
2022-12-23T14:55:49.148Z,90.40
2022-12-23T14:58:55.467Z,90.30
2022-12-23T15:01:27.912Z,90.30
2022-12-23T15:04:01.176Z,90.60
2022-12-23T15:06:33.631Z,90.70
2022-12-23T15:09:01.635Z,90.60
2022-12-23T15:11:32.634Z,90.50
2022-12-23T15:14:01.851Z,90.70
2022-12-23T15:16:34.440Z,90.60
2022-12-23T15:19:04.256Z,90.70
2022-12-23T15:21:34.316Z,90.60
2022-12-23T15:24:02.321Z,90.60
2022-12-23T15:26:32.871Z,90.70
2022-12-23T15:29:01.160Z,90.60
2022-12-23T15:31:32.048Z,90.60
2022-12-23T15:34:03.621Z,90.50
2022-12-23T15:36:35.778Z,90.50
2022-12-23T15:39:04.807Z,90.90
2022-12-23T15:41:34.187Z,90.80
2022-12-23T15:44:02.180Z,90.70
2022-12-23T15:46:32.589Z,90.70
2022-12-23T15:49:00.805Z,90.90
2022-12-23T15:52:05.191Z,90.70
2022-12-23T15:54:22.382Z,90.80
2022-12-23T15:56:52.830Z,90.90
2022-12-23T15:59:26.064Z,90.90
2022-12-23T16:01:54.820Z,90.60
2022-12-23T16:04:25.786Z,90.60
2022-12-23T16:06:54.002Z,90.80
2022-12-23T16:09:30.868Z,90.70
2022-12-23T16:12:00.794Z,90.80
2022-12-23T16:14:36.953Z,90.80
2022-12-23T16:17:18.352Z,90.80
2022-12-23T16:19:47.158Z,90.70
2022-12-23T16:22:21.148Z,90.80
2022-12-23T16:24:50.979Z,90.80
2022-12-23T16:27:25.360Z,90.80
2022-12-23T16:29:53.376Z,90.80
2022-12-23T16:32:21.559Z,90.70
2022-12-23T16:34:55.486Z,90.80
2022-12-23T16:37:23.511Z,90.80
2022-12-23T16:39:51.564Z,90.70
2022-12-23T16:42:21.634Z,90.90
2022-12-23T16:44:49.640Z,91.00
2022-12-23T16:47:17.678Z,90.90
2022-12-23T16:49:49.487Z,91.00
2022-12-23T16:52:17.514Z,91.30
2022-12-23T16:54:45.543Z,91.40
2022-12-23T16:57:13.627Z,91.40
2022-12-23T16:59:45.199Z,91.40
2022-12-23T17:02:17.447Z,91.40
2022-12-23T17:04:45.521Z,91.50
2022-12-23T17:07:13.569Z,91.50
2022-12-23T17:09:41.637Z,91.50
2022-12-23T17:12:10.470Z,91.50
2022-12-23T17:14:38.740Z,91.50
2022-12-23T17:17:13.796Z,91.70
2022-12-23T17:19:41.881Z,91.90
2022-12-23T17:22:11.600Z,91.90
2022-12-23T17:24:39.632Z,92.00
2022-12-23T17:27:12.493Z,92.00
2022-12-23T17:29:40.512Z,92.00
2022-12-23T17:32:15.618Z,92.00
2022-12-23T17:34:43.694Z,91.90
2022-12-23T17:37:15.403Z,92.00
2022-12-23T17:39:43.565Z,92.00
2022-12-23T17:42:17.773Z,92.00
2022-12-23T17:44:50.210Z,92.00
2022-12-23T17:47:22.154Z,92.10
2022-12-23T17:49:50.256Z,91.90
2022-12-23T17:52:19.588Z,91.90
2022-12-23T17:54:48.619Z,92.00
2022-12-23T17:57:21.348Z,92.10
2022-12-23T17:59:49.772Z,92.10
2022-12-23T18:02:25.932Z,92.00
2022-12-23T18:04:54.112Z,92.10
2022-12-23T18:07:22.127Z,92.10
2022-12-23T18:09:50.782Z,92.10
2022-12-23T18:12:28.141Z,92.20
2022-12-23T18:14:56.274Z,92.30
2022-12-23T18:17:26.946Z,92.10
2022-12-23T18:19:55.062Z,92.20
2022-12-23T18:22:23.983Z,92.30
2022-12-23T18:24:56.918Z,92.40
2022-12-23T18:27:27.012Z,92.40
2022-12-23T18:29:55.025Z,92.40
2022-12-23T18:32:24.946Z,92.40
2022-12-23T18:34:54.500Z,92.30
2022-12-23T18:37:22.691Z,92.40
2022-12-23T18:39:50.727Z,92.20
2022-12-23T18:42:20.282Z,92.50
2022-12-23T18:44:49.237Z,92.30
2022-12-23T18:47:17.210Z,92.60
2022-12-23T18:49:45.226Z,92.50
2022-12-23T18:52:14.602Z,92.50
2022-12-23T18:54:42.689Z,92.60
2022-12-23T18:57:11.253Z,92.70
2022-12-23T18:59:39.864Z,92.60
2022-12-23T19:02:08.167Z,92.60
2022-12-23T19:04:36.324Z,92.60
2022-12-23T19:07:04.334Z,92.60
2022-12-23T19:09:33.759Z,92.50
2022-12-23T19:12:01.818Z,92.50
2022-12-23T19:14:29.868Z,92.60
2022-12-23T19:17:01.882Z,92.70
2022-12-23T19:19:29.973Z,92.70
2022-12-23T19:21:58.012Z,92.70
2022-12-23T19:24:26.136Z,92.70
2022-12-23T19:26:55.516Z,92.80
2022-12-23T19:29:23.561Z,92.80
2022-12-23T19:31:51.593Z,92.70
2022-12-23T19:34:19.646Z,92.80
2022-12-23T19:36:48.106Z,92.80
2022-12-23T19:39:18.272Z,92.90
2022-12-23T19:41:46.365Z,92.80
2022-12-23T19:44:15.945Z,92.80
2022-12-23T19:46:44.041Z,92.80
2022-12-23T19:49:19.512Z,92.70
2022-12-23T19:51:48.502Z,92.80
2022-12-23T19:54:16.588Z,92.60
2022-12-23T19:56:44.737Z,92.70
2022-12-23T19:59:12.948Z,92.90
2022-12-23T20:01:42.462Z,92.90
2022-12-23T20:04:10.702Z,92.90
2022-12-23T20:06:39.241Z,92.80
2022-12-23T20:09:07.347Z,92.90
2022-12-23T20:11:36.118Z,92.90
2022-12-23T20:14:04.219Z,92.70
2022-12-23T20:16:32.463Z,92.80
2022-12-23T20:19:01.915Z,92.90
2022-12-23T20:21:30.019Z,92.80
2022-12-23T20:24:01.686Z,92.80
2022-12-23T20:26:31.719Z,93.00
2022-12-23T20:28:59.819Z,92.70
2022-12-23T20:31:28.807Z,92.80
2022-12-23T20:33:56.988Z,92.80
2022-12-23T20:36:27.518Z,92.60
2022-12-23T20:38:56.106Z,92.70
2022-12-23T20:41:25.498Z,92.80
2022-12-23T20:44:31.626Z,92.90
2022-12-23T20:46:41.689Z,92.90
2022-12-23T20:49:13.923Z,92.80
2022-12-23T20:51:43.348Z,92.90
2022-12-23T20:54:11.379Z,92.90
2022-12-23T20:56:39.436Z,92.90
2022-12-23T20:59:07.516Z,92.80
2022-12-23T21:01:36.511Z,92.80
2022-12-23T21:04:05.682Z,92.90
2022-12-23T21:06:34.113Z,92.80
2022-12-23T21:09:05.030Z,93.00
2022-12-23T21:11:45.206Z,92.80
2022-12-23T21:14:13.588Z,92.80
2022-12-23T21:16:41.800Z,92.80
2022-12-23T21:19:14.390Z,92.70
2022-12-23T21:21:42.478Z,93.00
2022-12-23T21:24:11.937Z,92.90
2022-12-23T21:26:40.210Z,92.90
2022-12-23T21:29:08.853Z,92.80
2022-12-23T21:31:38.726Z,92.80
2022-12-23T21:34:07.019Z,92.90
2022-12-23T21:36:36.461Z,92.90
2022-12-23T21:39:04.551Z,92.90
2022-12-23T21:41:36.671Z,92.90
2022-12-23T21:44:04.930Z,92.90
2022-12-23T21:46:33.025Z,92.90
2022-12-23T21:49:01.132Z,92.90
2022-12-23T21:51:36.918Z,92.80
2022-12-23T21:54:08.071Z,92.90
2022-12-23T21:56:37.504Z,92.90
2022-12-23T21:59:06.492Z,92.90
2022-12-23T22:01:34.558Z,92.90
2022-12-23T22:04:02.640Z,92.90
2022-12-23T22:06:31.825Z,93.00
2022-12-23T22:09:00.120Z,92.90
2022-12-23T22:11:29.093Z,93.00
2022-12-23T22:13:58.760Z,93.10
2022-12-23T22:16:27.808Z,93.00
2022-12-23T22:18:55.941Z,92.90
2022-12-23T22:21:24.653Z,92.90
2022-12-23T22:23:53.316Z,92.80
2022-12-23T22:26:26.722Z,92.90
2022-12-23T22:28:55.263Z,93.00
2022-12-23T22:31:31.467Z,93.00
2022-12-23T22:33:59.574Z,93.00
2022-12-23T22:36:27.794Z,93.10
2022-12-23T22:38:56.806Z,93.30
2022-12-23T22:41:25.435Z,93.10
2022-12-23T22:43:53.487Z,93.30
2022-12-23T22:46:21.676Z,93.10
2022-12-23T22:48:51.147Z,93.30
2022-12-23T22:51:20.176Z,93.40
2022-12-23T22:53:48.255Z,93.40
2022-12-23T22:56:17.285Z,93.40
2022-12-23T22:58:45.296Z,93.40
2022-12-23T23:01:20.473Z,93.40
2022-12-23T23:03:56.919Z,93.40
2022-12-23T23:06:25.892Z,93.50
2022-12-23T23:08:54.081Z,93.50
2022-12-23T23:11:22.113Z,93.50
2022-12-23T23:13:50.149Z,93.40
2022-12-23T23:16:18.210Z,93.50
2022-12-23T23:18:46.303Z,93.50
2022-12-23T23:21:15.720Z,93.50
2022-12-23T23:23:43.804Z,93.60
2022-12-23T23:26:11.873Z,93.60
2022-12-23T23:28:40.388Z,93.50
2022-12-23T23:34:01.869Z,93.50
2022-12-23T23:36:31.309Z,93.50
2022-12-23T23:38:59.414Z,93.60
2022-12-23T23:41:27.544Z,93.60
2022-12-23T23:43:55.590Z,93.50
2022-12-23T23:46:23.697Z,93.60
2022-12-23T23:48:52.200Z,93.60
2022-12-23T23:51:20.221Z,93.50
2022-12-23T23:53:49.673Z,93.60
2022-12-23T23:56:23.778Z,93.60
2022-12-23T23:58:53.361Z,93.60
